Time;durP1;ratioP1;P1;durP2;ratioP2;P2;SDS_P1;SDS_P2;PMS_P1;PMS_P2;Temp;Humidity;BMP_temperature;BMP_pressure;BME280_temperature;BME280_humidity;BME280_pressure;Samples;Min_cycle;Max_cycle;Signal;HPM_P1;HPM_P2
2022/02/22 00:02:22;;;;;;;;;;;3.90;82.40;;;2.38;83.19;95646.66;4987262;28;19926;-66
2022/02/22 00:04:48;;;;;;;;;;;3.90;82.40;;;2.37;83.15;95645.03;4967248;28;19922;-66
2022/02/22 00:07:13;;;;;;;;;;;3.90;82.40;;;2.33;83.56;95646.31;4967860;28;19923;-67
2022/02/22 00:09:39;;;;;;;;;;;3.90;82.60;;;2.35;82.98;95652.97;4970985;28;19922;-67
2022/02/22 00:12:06;;;;;;;;;;;3.90;82.60;;;2.33;83.36;95654.91;4970189;28;19922;-66
2022/02/22 00:14:31;;;;;;;;;;;4.00;82.30;;;2.36;83.94;95657.19;4954861;28;19971;-67
2022/02/22 00:16:57;;;;;;;;;;;4.00;82.30;;;2.35;83.22;95652.16;4986634;28;19930;-65
2022/02/22 00:19:23;;;;;;;;;;;3.90;82.20;;;2.35;83.59;95659.94;4981302;28;19921;-67
2022/02/22 00:21:49;;;;;;;;;;;3.90;82.00;;;2.33;83.36;95659.28;4950268;28;20405;-67
2022/02/22 00:24:15;;;;;;;;;;;4.00;82.00;;;2.33;82.38;95665.28;4944321;28;19930;-66
2022/02/22 00:26:41;;;;;;;;;;;3.90;81.90;;;2.32;82.89;95668.84;4986397;28;19922;-66
2022/02/22 00:29:06;;;;;;;;;;;3.90;81.90;;;2.32;84.07;95668.84;4949837;28;19922;-66
2022/02/22 00:31:32;;;;;;;;;;;3.90;81.90;;;2.35;83.49;95672.91;4968026;28;19934;-66
2022/02/22 00:33:57;;;;;;;;;;;4.00;81.90;;;2.36;82.46;95675.34;4967502;28;19926;-66
2022/02/22 00:36:23;;;;;;;;;;;4.00;81.60;;;2.38;82.50;95676.03;4951504;28;19936;-66
2022/02/22 00:38:49;;;;;;;;;;;4.00;81.70;;;2.42;82.54;95679.13;4964173;28;19984;-66
2022/02/22 00:41:16;;;;;;;;;;;4.10;81.40;;;2.46;82.37;95681.28;4985238;28;19951;-66
2022/02/22 00:43:42;;;;;;;;;;;4.10;80.90;;;2.51;82.58;95687.81;4990175;28;19928;-66
2022/02/22 00:46:07;;;;;;;;;;;4.20;80.80;;;2.49;82.15;95679.34;4990680;28;19921;-66
2022/02/22 00:48:33;;;;;;;;;;;4.20;80.60;;;2.55;82.23;95681.38;4970998;28;19921;-66
2022/02/22 00:51:01;;;;;;;;;;;4.20;80.50;;;2.57;82.44;95687.22;4989376;28;19926;-66
2022/02/22 00:53:26;;;;;;;;;;;4.20;80.40;;;2.59;82.16;95685.28;4989852;28;19944;-66
2022/02/22 00:55:52;;;;;;;;;;;4.30;80.10;;;2.62;82.31;95695.38;4972757;28;20393;-66
2022/02/22 00:58:18;;;;;;;;;;;4.30;79.90;;;2.62;82.48;95695.38;4972420;28;19930;-67
2022/02/22 01:00:43;;;;;;;;;;;4.40;79.80;;;2.63;82.43;95697.00;4971005;28;19922;-66
2022/02/22 01:03:09;;;;;;;;;;;4.30;80.10;;;2.67;81.63;95693.94;4954120;28;19932;-66
2022/02/22 01:05:35;;;;;;;;;;;4.40;79.80;;;2.68;81.46;95686.97;4989133;28;19926;-66
2022/02/22 01:08:02;;;;;;;;;;;4.40;79.60;;;2.72;81.88;95690.91;4953398;28;19986;-66
2022/02/22 01:10:28;;;;;;;;;;;4.40;79.60;;;2.71;81.39;95684.06;4973998;28;19925;-66
2022/02/22 01:12:54;;;;;;;;;;;4.40;79.60;;;2.74;81.73;95684.59;4972420;28;19926;-66
2022/02/22 01:15:20;;;;;;;;;;;4.40;79.50;;;2.75;81.42;95685.41;4972377;28;19929;-66
2022/02/22 01:17:46;;;;;;;;;;;4.40;79.60;;;2.71;80.81;95684.88;4986850;28;20374;-66
2022/02/22 01:20:12;;;;;;;;;;;4.50;79.40;;;2.77;81.47;95704.25;4966679;28;21480;-66
2022/02/22 01:22:37;;;;;;;;;;;4.40;79.60;;;2.76;81.80;95695.66;4968153;28;19933;-66
2022/02/22 01:25:04;;;;;;;;;;;4.50;79.60;;;2.74;81.74;95695.00;4951029;28;19922;-66
2022/02/22 01:27:30;;;;;;;;;;;4.40;79.60;;;2.76;80.94;95707.84;4966283;28;20433;-66
2022/02/22 01:29:56;;;;;;;;;;;4.40;79.50;;;2.76;80.63;95702.63;4959962;28;19933;-66
2022/02/22 01:32:21;;;;;;;;;;;4.40;79.20;;;2.75;79.75;95695.81;4987519;28;20397;-66
2022/02/22 01:34:47;;;;;;;;;;;4.40;79.10;;;2.76;81.64;95700.03;4954435;28;19929;-66
2022/02/22 01:37:13;;;;;;;;;;;4.40;79.30;;;2.75;81.03;95707.00;4969855;28;20471;-66
2022/02/22 01:39:38;;;;;;;;;;;4.40;79.20;;;2.77;81.01;95704.25;4987795;28;19972;-66
2022/02/22 01:42:04;;;;;;;;;;;4.40;79.00;;;2.75;81.09;95706.19;4989604;28;19921;-66
2022/02/22 01:44:30;;;;;;;;;;;4.40;79.30;;;2.71;80.43;95699.66;4987301;28;20041;-66
2022/02/22 01:46:57;;;;;;;;;;;4.30;79.30;;;2.72;80.84;95715.09;4971631;28;20305;-66
2022/02/22 01:49:22;;;;;;;;;;;4.20;79.30;;;2.69;80.86;95706.78;4989603;28;20390;-69
2022/02/22 01:51:48;;;;;;;;;;;4.30;79.50;;;2.73;81.25;95715.94;4969001;28;19926;-66
2022/02/22 01:54:14;;;;;;;;;;;4.40;79.10;;;2.72;80.56;95719.50;4968887;28;20036;-66
2022/02/22 01:56:40;;;;;;;;;;;4.30;79.40;;;2.72;80.63;95727.28;4969060;28;19931;-66
2022/02/22 01:59:05;;;;;;;;;;;4.30;79.40;;;2.70;81.25;95730.00;4988799;28;19946;-66
2022/02/22 02:01:31;;;;;;;;;;;4.30;79.50;;;2.73;81.15;95726.31;4938684;28;19922;-66
2022/02/22 02:03:56;;;;;;;;;;;4.30;79.50;;;2.76;80.97;95724.22;4970980;28;20091;-66
2022/02/22 02:06:22;;;;;;;;;;;4.50;79.20;;;2.75;81.16;95722.59;4955076;28;19929;-66
2022/02/22 02:08:48;;;;;;;;;;;4.40;79.30;;;2.78;81.38;95729.28;4954471;28;19922;-66
2022/02/22 02:11:13;;;;;;;;;;;4.50;79.10;;;2.79;81.07;95733.50;4968545;28;20333;-66
2022/02/22 02:13:39;;;;;;;;;;;4.40;79.30;;;2.80;80.42;95735.13;4989015;28;19925;-68
2022/02/22 02:16:06;;;;;;;;;;;4.40;79.10;;;2.81;80.91;95725.56;4951342;28;19926;-67
2022/02/22 02:18:32;;;;;;;;;;;4.40;79.20;;;2.83;80.61;95739.19;4971135;28;19922;-67
2022/02/22 02:20:57;;;;;;;;;;;4.40;78.80;;;2.82;80.79;95728.00;4987396;28;20389;-68
2022/02/22 02:23:23;;;;;;;;;;;4.50;78.90;;;2.87;78.71;95725.75;4967664;28;19926;-68
2022/02/22 02:28:29;;;;;;;;;;;4.50;78.50;;;2.90;80.31;95741.03;4955040;28;19927;-67
2022/02/22 02:30:54;;;;;;;;;;;4.50;78.70;;;2.93;80.66;95737.31;4960999;28;20408;-67
2022/02/22 02:33:20;;;;;;;;;;;4.60;78.50;;;2.94;80.10;95734.59;4934216;28;19961;-67
2022/02/22 02:35:46;;;;;;;;;;;4.50;78.60;;;2.96;80.04;95730.06;4966613;28;19928;-67
2022/02/22 02:38:11;;;;;;;;;;;4.60;78.40;;;3.00;79.83;95740.97;4949821;28;19929;-67
2022/02/22 02:40:37;;;;;;;;;;;4.60;78.40;;;3.03;79.71;95746.69;4949657;28;19926;-67
2022/02/22 02:43:03;;;;;;;;;;;4.60;78.20;;;3.04;80.23;95750.09;4927687;28;19922;-68
2022/02/22 02:45:29;;;;;;;;;;;4.60;78.20;;;3.04;80.32;95748.31;4944897;28;19922;-68
2022/02/22 02:47:54;;;;;;;;;;;4.60;78.60;;;3.05;80.38;95754.31;4951054;28;19926;-68
2022/02/22 02:50:20;;;;;;;;;;;4.60;78.60;;;3.04;80.70;95756.09;4933749;28;19972;-67
2022/02/22 02:52:46;;;;;;;;;;;4.60;78.60;;;3.06;80.26;95767.16;4950660;28;19929;-68
2022/02/22 02:55:11;;;;;;;;;;;4.70;78.50;;;3.06;79.81;95769.75;4933375;28;19932;-67
2022/02/22 02:57:38;;;;;;;;;;;4.60;78.40;;;3.07;80.72;95766.19;4945688;28;19928;-67
2022/02/22 03:00:05;;;;;;;;;;;4.60;78.40;;;3.08;80.57;95762.63;4944558;28;20303;-68
2022/02/22 03:02:30;;;;;;;;;;;4.60;78.10;;;3.11;80.00;95763.28;4940682;28;19990;-69
2022/02/22 03:04:59;;;;;;;;;;;4.70;78.00;;;3.11;80.05;95763.28;4943117;29;19923;-68
2022/02/22 03:07:26;;;;;;;;;;;4.60;77.90;;;3.10;81.45;95782.44;4967780;28;20305;-68
2022/02/22 03:09:51;;;;;;;;;;;4.60;79.90;;;3.07;82.14;95778.38;4947740;28;19933;-68
2022/02/22 03:12:17;;;;;;;;;;;4.60;80.40;;;3.05;82.13;95778.50;4947620;28;19952;-67
2022/02/22 03:14:45;;;;;;;;;;;4.60;80.30;;;3.06;80.48;95774.13;4932551;29;19934;-68
2022/02/22 03:17:10;;;;;;;;;;;4.60;79.90;;;3.05;81.70;95781.13;4933933;28;20453;-67
2022/02/22 03:19:36;;;;;;;;;;;4.60;80.00;;;3.03;82.07;95782.22;4951572;28;19938;-68
2022/02/22 03:22:02;;;;;;;;;;;4.60;79.90;;;3.02;82.03;95780.59;4931316;28;20350;-67
2022/02/22 03:24:27;;;;;;;;;;;4.50;79.60;;;3.00;81.25;95783.34;4946065;28;19922;-67
2022/02/22 03:26:53;;;;;;;;;;;4.50;79.30;;;2.98;81.93;95790.47;4932995;28;20306;-67
2022/02/22 03:29:18;;;;;;;;;;;4.50;79.30;;;2.98;81.05;95789.66;4948911;28;19930;-67
2022/02/22 03:31:44;;;;;;;;;;;4.40;79.10;;;2.97;79.82;95799.25;4947962;28;19928;-67
2022/02/22 03:34:10;;;;;;;;;;;4.50;78.70;;;2.98;80.37;95805.25;4930453;28;20000;-67
2022/02/22 03:36:35;;;;;;;;;;;4.50;78.50;;;2.97;79.48;95814.84;4962655;28;19929;-67
2022/02/22 03:39:01;;;;;;;;;;;4.50;78.20;;;2.99;80.72;95812.09;4934330;28;19928;-68
2022/02/22 03:41:27;;;;;;;;;;;4.60;78.50;;;3.00;80.29;95848.31;4932947;28;20402;-67
2022/02/22 03:43:53;;;;;;;;;;;4.60;78.30;;;2.99;81.49;95884.84;4963562;28;19926;-69
2022/02/22 03:46:19;;;;;;;;;;;4.60;79.50;;;2.93;81.49;95864.63;4937383;28;20378;-70
2022/02/22 03:48:44;;;;;;;;;;;4.40;79.30;;;2.82;81.07;95855.25;4949817;28;19932;-70
2022/02/22 03:51:10;;;;;;;;;;;4.20;79.60;;;2.66;81.66;95868.06;4945193;28;19922;-68
2022/02/22 03:53:36;;;;;;;;;;;3.90;80.40;;;2.57;81.33;95869.78;4930141;28;19926;-67
2022/02/22 03:56:01;;;;;;;;;;;4.00;80.30;;;2.50;81.97;95883.50;4912882;28;20441;-67
2022/02/22 03:58:27;;;;;;;;;;;3.90;80.70;;;2.44;82.55;95887.44;4948198;28;20195;-67
2022/02/22 04:00:53;;;;;;;;;;;3.90;80.60;;;2.40;82.91;95892.13;4952527;28;19918;-67
2022/02/22 04:03:18;;;;;;;;;;;3.90;80.80;;;2.37;81.83;95896.78;4969321;28;19932;-67
2022/02/22 04:05:46;;;;;;;;;;;4.00;80.60;;;2.31;83.08;95900.78;4919089;28;19992;-68
2022/02/22 04:08:13;;;;;;;;;;;3.80;80.80;;;2.29;82.47;95902.69;4963182;28;20004;-67
2022/02/22 04:10:38;;;;;;;;;;;3.80;80.60;;;2.30;82.46;95912.13;4936649;28;19996;-67
2022/02/22 04:13:04;;;;;;;;;;;3.90;80.00;;;2.29;81.43;95920.88;4925937;29;20017;-68
2022/02/22 04:15:30;;;;;;;;;;;3.80;79.80;;;2.28;81.38;95931.38;4934427;29;19923;-68
2022/02/22 04:17:55;;;;;;;;;;;3.90;79.70;;;2.29;81.64;95939.03;4952942;28;20330;-68
2022/02/22 04:20:21;;;;;;;;;;;3.80;79.40;;;2.26;81.78;95939.28;4956294;28;19922;-67
2022/02/22 04:22:46;;;;;;;;;;;3.80;79.50;;;2.23;81.62;95947.34;4973206;28;19922;-68
2022/02/22 04:25:12;;;;;;;;;;;3.80;79.60;;;2.21;81.21;95944.09;4923428;28;19922;-68
2022/02/22 04:27:38;;;;;;;;;;;3.70;79.70;;;2.19;81.60;95953.78;4939350;28;19922;-67
2022/02/22 04:30:05;;;;;;;;;;;3.70;79.90;;;2.18;81.68;95959.94;4955135;28;19936;-68
2022/02/22 04:32:31;;;;;;;;;;;3.80;79.80;;;2.15;82.37;95973.19;4940274;28;20020;-67
2022/02/22 04:34:57;;;;;;;;;;;3.60;80.30;;;2.11;81.93;95977.84;4956816;28;19984;-68
2022/02/22 04:37:22;;;;;;;;;;;3.60;80.70;;;2.08;82.01;95987.69;4973160;28;20321;-67
2022/02/22 04:39:50;;;;;;;;;;;3.60;80.70;;;2.07;82.69;95980.88;4960639;28;19934;-67
2022/02/22 04:42:16;;;;;;;;;;;3.60;81.40;;;2.08;82.69;95992.88;4939697;28;20374;-68
2022/02/22 04:44:43;;;;;;;;;;;3.60;80.90;;;2.05;82.47;95995.78;4955244;28;19922;-67
2022/02/22 04:47:09;;;;;;;;;;;3.60;80.90;;;2.04;83.14;95992.34;4923915;28;19922;-67
2022/02/22 04:49:35;;;;;;;;;;;3.60;80.80;;;2.04;83.75;96004.50;4939727;28;20353;-67
2022/02/22 04:52:01;;;;;;;;;;;3.70;81.20;;;2.07;82.08;96004.22;4938796;28;19930;-68
2022/02/22 04:54:26;;;;;;;;;;;3.60;80.40;;;2.05;81.88;96019.13;4954422;28;19927;-68
2022/02/22 04:56:52;;;;;;;;;;;3.70;80.20;;;2.06;82.47;96005.19;4950085;28;19988;-71
2022/02/22 04:59:18;;;;;;;;;;;3.70;80.10;;;2.08;81.69;96014.47;4943812;28;20039;-68
2022/02/22 05:01:43;;;;;;;;;;;3.70;79.60;;;2.10;81.75;96017.75;4939979;28;19944;-68
2022/02/22 05:04:11;;;;;;;;;;;3.70;79.80;;;2.11;81.51;96013.38;4962940;28;19925;-69
2022/02/22 05:06:37;;;;;;;;;;;3.70;79.60;;;2.13;82.39;96022.66;4952973;28;20361;-68
2022/02/22 05:09:02;;;;;;;;;;;3.80;79.80;;;2.16;83.13;96029.31;4955514;28;19922;-68
2022/02/22 05:11:28;;;;;;;;;;;3.80;80.20;;;2.15;83.51;96025.91;4955522;28;19925;-68
2022/02/22 05:13:54;;;;;;;;;;;3.70;81.80;;;2.14;84.49;96037.25;4955172;28;19976;-68
2022/02/22 05:16:19;;;;;;;;;;;3.70;82.20;;;2.14;84.09;96044.22;4947516;29;19926;-68
2022/02/22 05:18:45;;;;;;;;;;;3.80;82.30;;;2.11;84.86;96044.50;4936416;29;19918;-68
2022/02/22 05:21:11;;;;;;;;;;;3.70;82.40;;;2.12;84.44;96046.13;4920439;29;20375;-68
2022/02/22 05:23:37;;;;;;;;;;;3.70;82.30;;;2.09;84.57;96049.00;4937587;28;20271;-68
2022/02/22 05:26:03;;;;;;;;;;;3.60;82.60;;;2.05;83.92;96052.84;4937674;28;20051;-67
2022/02/22 05:28:29;;;;;;;;;;;3.60;82.40;;;2.03;82.92;96059.91;4939264;28;20350;-68
2022/02/22 05:30:54;;;;;;;;;;;3.60;81.60;;;2.00;83.39;96055.00;4972657;28;19924;-68
2022/02/22 05:33:20;;;;;;;;;;;3.60;81.50;;;1.98;83.80;96054.31;4923045;28;20012;-68
2022/02/22 05:35:46;;;;;;;;;;;3.60;81.40;;;1.97;83.67;96060.47;4935727;29;19925;-68
2022/02/22 05:38:12;;;;;;;;;;;3.60;81.40;;;1.95;83.49;96059.78;4969160;28;19926;-69
2022/02/22 05:40:38;;;;;;;;;;;3.60;81.10;;;1.92;83.46;96052.28;4955442;28;20299;-69
2022/02/22 05:43:03;;;;;;;;;;;3.50;81.20;;;1.90;83.18;96061.97;4942108;28;19926;-68
2022/02/22 05:45:29;;;;;;;;;;;3.50;81.10;;;1.86;83.06;96061.44;4935633;29;19918;-68
2022/02/22 05:47:55;;;;;;;;;;;3.40;80.90;;;1.83;82.53;96056.53;4951485;28;19923;-68
2022/02/22 05:50:20;;;;;;;;;;;3.40;80.70;;;1.79;83.09;96071.50;4954956;28;19922;-69
2022/02/22 05:52:46;;;;;;;;;;;3.30;80.60;;;1.79;82.64;96081.88;4938447;28;20382;-68
2022/02/22 05:55:12;;;;;;;;;;;3.40;80.40;;;1.76;82.22;96076.97;4954586;28;19929;-68
2022/02/22 05:57:38;;;;;;;;;;;3.30;80.10;;;1.76;82.40;96086.53;4939083;28;19918;-68
2022/02/22 06:00:06;;;;;;;;;;;3.30;80.00;;;1.74;81.66;96094.44;4971634;28;19922;-68
2022/02/22 06:02:32;;;;;;;;;;;3.30;80.40;;;1.72;82.53;96098.94;4972241;28;20412;-68
2022/02/22 06:04:58;;;;;;;;;;;3.30;80.10;;;1.72;81.60;96098.94;4954548;28;20042;-68
2022/02/22 06:07:23;;;;;;;;;;;3.30;80.20;;;1.73;82.50;96103.19;4954399;28;19928;-68
2022/02/22 06:09:52;;;;;;;;;;;3.30;80.60;;;1.78;80.64;96107.97;4938506;28;19922;-69
2022/02/22 06:12:17;;;;;;;;;;;3.40;80.00;;;1.79;81.75;96109.59;4938150;28;19926;-68
2022/02/22 06:14:43;;;;;;;;;;;3.40;79.30;;;1.81;81.76;96118.91;4938215;28;20295;-68
2022/02/22 06:17:09;;;;;;;;;;;3.40;79.20;;;1.82;81.23;96112.75;4954309;28;19934;-69
2022/02/22 06:19:34;;;;;;;;;;;3.40;79.00;;;1.86;80.22;96117.69;4938729;28;19964;-68
2022/02/22 06:22:00;;;;;;;;;;;3.50;78.20;;;1.88;79.97;96123.53;4953892;28;19940;-68
2022/02/22 06:24:26;;;;;;;;;;;3.50;77.50;;;1.93;79.33;96134.34;4954207;28;19925;-69
2022/02/22 06:26:51;;;;;;;;;;;3.60;77.00;;;1.96;79.37;96141.84;4954472;28;19968;-68
2022/02/22 06:29:17;;;;;;;;;;;3.60;76.80;;;1.98;79.92;96140.75;4938576;28;20402;-68
2022/02/22 06:31:43;;;;;;;;;;;3.70;76.80;;;2.02;78.37;96149.88;4954342;28;20004;-68
2022/02/22 06:34:08;;;;;;;;;;;3.60;76.00;;;2.06;78.69;96155.66;4970937;28;20386;-69
2022/02/22 06:36:34;;;;;;;;;;;3.70;76.00;;;2.08;78.92;96158.94;4948359;28;19923;-68
2022/02/22 06:39:00;;;;;;;;;;;3.70;76.00;;;2.13;78.58;96164.53;4935112;29;19922;-69
2022/02/22 06:41:26;;;;;;;;;;;3.80;75.90;;;2.15;78.90;96170.41;4903450;29;19951;-68
2022/02/22 06:43:54;;;;;;;;;;;3.80;76.10;;;2.18;78.58;96167.53;4969384;28;20309;-68
2022/02/22 06:46:19;;;;;;;;;;;3.80;75.90;;;2.20;78.99;96178.59;4953857;28;19944;-68
2022/02/22 06:48:45;;;;;;;;;;;3.90;75.80;;;2.24;78.20;96184.31;4954337;28;19987;-67
2022/02/22 06:51:11;;;;;;;;;;;3.90;76.10;;;2.27;78.90;96192.69;4954094;28;19949;-68
2022/02/22 06:53:36;;;;;;;;;;;4.00;76.10;;;2.31;78.78;96196.66;4937733;28;20310;-68
2022/02/22 06:56:02;;;;;;;;;;;4.10;75.90;;;2.34;78.68;96211.94;4952770;28;19975;-68
2022/02/22 06:58:28;;;;;;;;;;;4.10;76.10;;;2.39;78.04;96203.75;4970922;28;19926;-68
2022/02/22 07:00:55;;;;;;;;;;;4.10;75.70;;;2.43;78.44;96221.50;4953775;28;19929;-68
2022/02/22 07:03:21;;;;;;;;;;;4.10;75.60;;;2.45;79.20;96211.81;4953878;28;19969;-69
2022/02/22 07:05:47;;;;;;;;;;;4.20;76.20;;;2.49;78.62;96209.78;4937498;28;19918;-68
2022/02/22 07:08:13;;;;;;;;;;;4.20;75.70;;;2.53;79.07;96220.72;4936800;28;20041;-68
2022/02/22 07:10:38;;;;;;;;;;;4.20;76.10;;;2.55;78.81;96218.78;4971111;28;19918;-68
2022/02/22 07:13:04;;;;;;;;;;;4.20;75.80;;;2.57;79.25;96227.25;4921367;28;20390;-68
2022/02/22 07:15:30;;;;;;;;;;;4.30;76.30;;;2.62;79.18;96219.88;4953208;28;19984;-69
2022/02/22 07:17:57;;;;;;;;;;;4.50;76.10;;;2.64;79.48;96234.38;4970356;28;19944;-68
2022/02/22 07:20:23;;;;;;;;;;;4.40;75.70;;;2.67;79.22;96241.06;4921762;28;19952;-68
2022/02/22 07:22:49;;;;;;;;;;;4.40;76.00;;;2.70;78.86;96243.38;4937085;28;19928;-68
2022/02/22 07:25:17;;;;;;;;;;;4.50;76.00;;;2.72;78.52;96246.69;4936981;28;19922;-68
2022/02/22 07:27:44;;;;;;;;;;;4.50;75.40;;;2.73;78.81;96249.13;4937350;28;19922;-68
2022/02/22 07:30:11;;;;;;;;;;;4.50;75.70;;;2.77;78.69;96260.06;4937116;28;19976;-68
2022/02/22 07:32:37;;;;;;;;;;;4.70;75.30;;;2.81;79.06;96256.25;4970655;28;19914;-69
2022/02/22 07:35:04;;;;;;;;;;;4.70;75.20;;;2.83;78.68;96254.31;4969865;28;19922;-68
2022/02/22 07:37:31;;;;;;;;;;;4.60;75.20;;;2.84;78.50;96266.34;4944782;28;20398;-68
2022/02/22 07:39:57;;;;;;;;;;;4.60;75.10;;;2.83;78.55;96269.91;4936576;28;20009;-68
2022/02/22 07:42:23;;;;;;;;;;;4.60;75.10;;;2.81;79.03;96274.44;4934186;29;19918;-67
2022/02/22 07:44:48;;;;;;;;;;;4.80;74.90;;;2.90;78.73;96275.38;4933775;29;19942;-68
2022/02/22 07:47:14;;;;;;;;;;;5.30;73.30;;;3.05;78.21;96281.78;4944872;28;19948;-68
2022/02/22 07:49:40;;;;;;;;;;;5.80;71.50;;;3.23;78.09;96292.31;4936609;28;19925;-69
2022/02/22 07:52:06;;;;;;;;;;;6.10;69.80;;;3.41;77.59;96284.63;4969764;28;20041;-68
2022/02/22 07:54:31;;;;;;;;;;;6.40;68.90;;;3.61;77.09;96281.81;4952570;28;20322;-68
2022/02/22 07:56:57;;;;;;;;;;;6.70;67.60;;;3.87;76.21;96281.22;4952487;28;19922;-67
2022/02/22 07:59:23;;;;;;;;;;;7.30;65.90;;;4.21;75.80;96295.28;4937097;28;20327;-67
2022/02/22 08:01:50;;;;;;;;;;;8.00;64.60;;;4.57;74.56;96284.97;4970284;28;19928;-70
2022/02/22 08:04:16;;;;;;;;;;;8.60;61.70;;;4.83;73.69;96296.28;4936635;28;19922;-68
2022/02/22 08:06:41;;;;;;;;;;;8.60;61.10;;;5.14;73.24;96295.91;4969989;28;19922;-68
2022/02/22 08:09:07;;;;;;;;;;;9.10;59.10;;;5.39;72.04;96312.56;4970196;28;20235;-67
2022/02/22 08:11:33;;;;;;;;;;;9.40;58.30;;;5.60;70.94;96310.44;4952795;28;19949;-68
2022/02/22 08:13:59;;;;;;;;;;;9.40;57.20;;;5.79;70.28;96323.28;4969573;28;19928;-68
2022/02/22 08:16:28;;;;;;;;;;;9.70;55.60;;;5.98;69.76;96324.91;4936156;28;19922;-68
2022/02/22 08:18:54;;;;;;;;;;;10.10;55.60;;;6.14;69.57;96332.84;4952449;28;19929;-69
2022/02/22 08:21:23;;;;;;;;;;;10.00;54.80;;;6.31;68.43;96333.72;4935646;28;20103;-68
2022/02/22 08:23:49;;;;;;;;;;;10.20;53.40;;;6.43;67.07;96339.50;4951379;28;19949;-68
2022/02/22 08:26:16;;;;;;;;;;;10.10;53.50;;;6.55;67.37;96347.84;4952183;28;19930;-68
2022/02/22 08:28:42;;;;;;;;;;;10.20;53.40;;;6.72;66.55;96345.13;4953235;28;19949;-68
2022/02/22 08:31:08;;;;;;;;;;;10.60;51.30;;;6.88;66.65;96340.94;4920687;28;19961;-68
2022/02/22 08:33:34;;;;;;;;;;;10.50;51.30;;;6.97;65.17;96353.88;4936500;28;19926;-69
2022/02/22 08:35:59;;;;;;;;;;;10.70;50.80;;;7.14;64.61;96346.06;4969095;28;19918;-68
2022/02/22 08:38:25;;;;;;;;;;;11.10;49.60;;;7.29;63.54;96355.72;4977962;28;19922;-68
2022/02/22 08:40:51;;;;;;;;;;;11.10;49.60;;;7.45;64.23;96359.31;4970156;28;19925;-68
2022/02/22 08:43:17;;;;;;;;;;;10.80;49.90;;;7.68;63.19;96362.91;4952212;28;19973;-67
2022/02/22 08:45:43;;;;;;;;;;;11.60;47.60;;;7.88;62.13;96373.88;4935980;28;20378;-68
2022/02/22 08:48:10;;;;;;;;;;;11.10;48.00;;;7.93;61.34;96380.28;4951906;28;20017;-69
2022/02/22 08:50:36;;;;;;;;;;;10.40;48.90;;;7.87;62.01;96377.47;4952172;28;19957;-68
2022/02/22 08:53:02;;;;;;;;;;;10.10;50.90;;;7.78;61.22;96384.53;4952245;28;19929;-68
2022/02/22 08:55:28;;;;;;;;;;;9.90;51.40;;;7.63;62.33;96380.94;4951902;28;19926;-68
2022/02/22 08:57:56;;;;;;;;;;;9.60;52.60;;;7.44;60.94;96374.22;4936056;28;20012;-69
2022/02/22 09:00:23;;;;;;;;;;;9.20;52.00;;;7.44;61.55;96386.47;4952915;28;19968;-68
2022/02/22 09:02:53;;;;;;;;;;;10.30;50.20;;;7.59;61.70;96385.69;4940084;28;19928;-68
2022/02/22 09:05:19;;;;;;;;;;;10.50;49.90;;;7.69;61.25;96401.22;4924797;28;20349;-68
2022/02/22 09:07:45;;;;;;;;;;;10.10;50.40;;;7.83;61.22;96395.34;4972755;28;20031;-68
2022/02/22 09:10:13;;;;;;;;;;;10.80;49.60;;;7.97;61.06;96393.84;4923743;28;20009;-69
2022/02/22 09:12:40;;;;;;;;;;;10.60;49.90;;;8.03;60.04;96387.13;4940347;28;20225;-68
2022/02/22 09:15:10;;;;;;;;;;;10.40;48.90;;;7.93;58.54;96397.81;4955086;28;20353;-67
2022/02/22 09:17:36;;;;;;;;;;;9.90;48.80;;;7.81;58.84;96394.69;4923910;28;20004;-68
2022/02/22 09:20:03;;;;;;;;;;;9.70;50.00;;;7.74;59.01;96413.84;4955168;28;20374;-68
2022/02/22 09:22:29;;;;;;;;;;;9.90;49.70;;;7.70;59.43;96412.53;4939354;28;19923;-68
2022/02/22 09:24:55;;;;;;;;;;;10.00;49.40;;;7.69;58.03;96416.94;4955098;28;20013;-68
2022/02/22 09:27:20;;;;;;;;;;;9.50;49.40;;;7.58;58.50;96422.50;4955052;28;19932;-68
2022/02/22 09:29:46;;;;;;;;;;;9.20;50.10;;;7.53;59.48;96422.16;4972260;28;19933;-68
2022/02/22 09:32:12;;;;;;;;;;;9.40;50.60;;;7.40;58.97;96432.28;4954777;28;20425;-69
2022/02/22 09:34:37;;;;;;;;;;;8.90;51.40;;;7.20;57.63;96421.28;4971121;28;19926;-69
2022/02/22 09:37:05;;;;;;;;;;;8.80;49.80;;;7.10;58.62;96444.97;4953300;28;19926;-68
2022/02/22 09:39:31;;;;;;;;;;;8.80;51.50;;;7.02;59.16;96440.53;4929989;29;19923;-68
2022/02/22 09:41:57;;;;;;;;;;;8.80;51.40;;;7.01;59.85;96443.28;4951623;29;20409;-68
2022/02/22 09:44:22;;;;;;;;;;;9.10;51.30;;;6.98;58.89;96440.97;4954559;28;19954;-68
2022/02/22 09:46:49;;;;;;;;;;;8.80;51.60;;;6.89;59.64;96449.78;4954819;28;19929;-68
2022/02/22 09:49:15;;;;;;;;;;;8.60;52.80;;;6.86;59.91;96442.25;4954971;28;20233;-68
2022/02/22 09:51:40;;;;;;;;;;;8.60;53.00;;;6.79;59.41;96457.78;4938693;28;20272;-68
2022/02/22 09:54:06;;;;;;;;;;;8.50;52.20;;;6.68;59.54;96453.63;4954060;28;19933;-68
2022/02/22 09:56:33;;;;;;;;;;;8.30;53.10;;;6.60;58.65;96453.59;4971958;28;19937;-68
2022/02/22 09:58:58;;;;;;;;;;;8.30;51.80;;;6.60;58.14;96460.59;4954811;28;19981;-68
2022/02/22 10:01:25;;;;;;;;;;;9.30;49.00;;;6.76;58.14;96461.47;4938498;28;20381;-68
2022/02/22 10:03:59;;;;;;;;;;;9.40;47.40;;;6.91;57.79;96464.34;4954482;28;19925;-69
2022/02/22 10:06:26;;;;;;;;;;;9.60;48.00;;;7.02;56.50;96465.88;4953705;28;19925;-68
2022/02/22 10:08:55;;;;;;;;;;;9.80;46.50;;;7.12;56.27;96461.31;4954238;28;19965;-68
2022/02/22 10:11:21;;;;;;;;;;;9.30;47.30;;;7.13;56.91;96470.81;4954505;28;20082;-68
2022/02/22 10:13:47;;;;;;;;;;;9.10;48.60;;;7.07;57.38;96480.09;4934969;29;20193;-68
2022/02/22 10:16:13;;;;;;;;;;;8.70;50.30;;;6.98;57.83;96474.97;4950208;28;19973;-69
2022/02/22 10:18:49;;;;;;;;;;;8.60;51.80;;;6.94;58.60;96481.50;4952708;29;19918;-69
2022/02/22 10:21:14;;;;;;;;;;;8.50;52.30;;;7.03;59.05;96483.19;4951256;29;19926;-68
2022/02/22 10:23:40;;;;;;;;;;;10.20;49.70;;;7.22;58.22;96477.69;4939737;28;19968;-68
2022/02/22 10:26:06;;;;;;;;;;;9.90;47.70;;;7.21;57.30;96485.69;4937056;28;19926;-69
2022/02/22 10:28:31;;;;;;;;;;;9.10;49.50;;;7.04;56.56;96482.22;4954266;28;19918;-69
2022/02/22 10:30:57;;;;;;;;;;;8.40;50.30;;;6.96;55.86;96487.41;4971841;28;19918;-68
2022/02/22 10:33:27;;;;;;;;;;;8.60;50.00;;;7.17;57.66;96487.81;4954280;28;20274;-68
2022/02/22 10:36:04;;;;;;;;;;;10.20;47.10;;;7.44;57.15;96496.41;4937452;28;19950;-68
2022/02/22 10:38:34;;;;;;;;;;;10.20;46.60;;;7.58;56.28;96494.00;4950557;28;20422;-69
2022/02/22 10:41:17;;;;;;;;;;;10.90;44.60;;;7.67;55.73;96490.41;4951575;28;19941;-68
2022/02/22 10:43:50;;;;;;;;;;;10.20;46.50;;;7.52;55.99;96499.06;4971689;28;19918;-68
2022/02/22 10:46:16;;;;;;;;;;;9.10;48.50;;;7.41;56.95;96507.19;4933724;29;19937;-68
2022/02/22 10:48:42;;;;;;;;;;;8.80;49.20;;;7.19;56.61;96506.78;4919004;29;19934;-68
2022/02/22 10:51:13;;;;;;;;;;;8.40;51.00;;;7.02;57.75;96507.72;4951790;28;19922;-69
2022/02/22 10:53:49;;;;;;;;;;;8.30;52.30;;;6.87;58.52;96509.28;4919116;29;19919;-68
2022/02/22 10:56:18;;;;;;;;;;;8.30;53.30;;;7.01;58.37;96500.81;4938237;28;19937;-68
2022/02/22 10:58:44;;;;;;;;;;;11.60;46.50;;;7.58;58.53;96503.66;4954082;28;19922;-68
2022/02/22 11:01:12;;;;;;;;;;;12.40;43.70;;;8.13;57.54;96503.03;4937597;28;19992;-69
2022/02/22 11:03:38;;;;;;;;;;;12.80;42.10;;;8.45;55.46;96500.47;4971592;28;20243;-69
2022/02/22 11:06:04;;;;;;;;;;;12.40;42.50;;;8.62;55.06;96496.00;4970120;28;19922;-68
2022/02/22 11:08:31;;;;;;;;;;;11.90;41.20;;;9.12;55.04;96495.72;4953652;28;20202;-68
2022/02/22 11:11:10;;;;;;;;;;;15.50;36.60;;;9.92;50.45;96487.53;4953657;28;19918;-68
2022/02/22 11:13:36;;;;;;;;;;;16.40;32.10;;;10.34;50.73;96486.25;4937704;28;20375;-69
2022/02/22 11:16:15;;;;;;;;;;;15.50;34.40;;;10.46;47.36;96481.41;4970033;28;19924;-68
2022/02/22 11:18:44;;;;;;;;;;;14.00;35.20;;;10.30;48.65;96475.28;4953312;28;20317;-68
2022/02/22 11:21:09;;;;;;;;;;;12.80;37.80;;;10.24;49.89;96468.13;4937947;28;20302;-68
2022/02/22 11:23:35;;;;;;;;;;;14.30;37.10;;;10.93;48.54;96475.81;4937153;28;20013;-68
2022/02/22 11:26:18;;;;;;;;;;;17.80;31.20;;;11.73;48.42;96467.88;4969308;28;19918;-69
2022/02/22 11:28:49;;;;;;;;;;;17.50;30.90;;;11.94;48.00;96467.91;4953048;28;20044;-69
2022/02/22 11:31:17;;;;;;;;;;;16.50;33.00;;;12.25;47.99;96469.44;4953052;28;20303;-68